Time;durP1;ratioP1;P1;durP2;ratioP2;P2;SDS_P1;SDS_P2;PMS_P1;PMS_P2;Temp;Humidity;BMP_temperature;BMP_pressure;BME280_temperature;BME280_humidity;BME280_pressure;Samples;Min_cycle;Max_cycle;Signal;HPM_P1;HPM_P2
2023/06/02 00:02:41;;;;;;;;;;;;;;;21.76;48.67;100026.75;5378453;32;45824;-72
2023/06/02 00:05:44;;;;;;;;;;;;;;;22.00;47.81;100029.84;5381255;32;33585;-73
2023/06/02 00:08:46;;;;;;;;;;;;;;;22.05;47.87;100018.72;5375757;32;33665;-72
2023/06/02 00:11:49;;;;;;;;;;;;;;;21.60;48.82;100030.81;5385300;32;33768;-72
2023/06/02 00:14:52;;;;;;;;;;;;;;;21.59;48.83;100023.78;5367592;32;34908;-72
2023/06/02 00:17:54;;;;;;;;;;;;;;;22.32;47.14;100012.66;5387080;32;33784;-72
2023/06/02 00:20:56;;;;;;;;;;;;;;;22.50;46.54;100015.44;5382403;32;33790;-73
2023/06/02 00:23:58;;;;;;;;;;;;;;;22.66;46.41;100027.19;5392855;32;33198;-75
2023/06/02 00:27:00;;;;;;;;;;;;;;;21.78;48.61;100022.12;5383055;32;34596;-74
2023/06/02 00:30:03;;;;;;;;;;;;;;;21.25;50.17;100027.75;5385533;32;33756;-72
2023/06/02 00:33:05;;;;;;;;;;;;;;;21.32;50.15;100023.63;5401001;32;33032;-72
2023/06/02 00:36:07;;;;;;;;;;;;;;;21.97;48.53;100021.28;5380645;32;33007;-73
2023/06/02 00:39:10;;;;;;;;;;;;;;;21.97;48.73;100022.12;5389213;32;35556;-74
2023/06/02 00:42:15;;;;;;;;;;;;;;;21.84;49.10;100016.22;5387031;32;32912;-72
2023/06/02 00:45:17;;;;;;;;;;;;;;;21.81;49.04;100014.63;5376695;32;33988;-73
2023/06/02 00:48:19;;;;;;;;;;;;;;;21.84;48.96;100016.22;5373363;32;33122;-73
2023/06/02 00:51:21;;;;;;;;;;;;;;;21.21;50.79;100018.34;5380283;32;33711;-74
2023/06/02 00:54:23;;;;;;;;;;;;;;;21.14;50.91;100019.87;5372767;32;33735;-72
2023/06/02 00:57:28;;;;;;;;;;;;;;;20.93;51.51;100007.44;5336378;32;982746;-74
2023/06/02 01:00:36;;;;;;;;;;;;;;;21.94;48.58;100010.84;5395658;32;33905;-74
2023/06/02 01:03:39;;;;;;;;;;;;;;;21.29;50.70;100013.19;5369983;32;33425;-73
2023/06/02 01:06:41;;;;;;;;;;;;;;;21.46;49.95;100015.19;5391698;32;46193;-73
2023/06/02 01:09:43;;;;;;;;;;;;;;;21.77;49.18;100013.25;5384489;32;35274;-72
2023/06/02 01:12:45;;;;;;;;;;;;;;;21.13;50.98;100012.84;5371710;32;33582;-73
2023/06/02 01:15:47;;;;;;;;;;;;;;;20.76;52.15;100013.41;5390106;32;34190;-72
2023/06/02 01:18:51;;;;;;;;;;;;;;;21.07;51.59;100016.91;5379568;32;33845;-73
2023/06/02 01:21:58;;;;;;;;;;;;;;;20.75;52.54;100012.56;5392757;32;33604;-72
2023/06/02 01:25:01;;;;;;;;;;;;;;;20.94;51.79;100011.81;5369107;32;33681;-73
2023/06/02 01:28:04;;;;;;;;;;;;;;;20.72;52.38;100002.13;5391775;32;33265;-73
2023/06/02 01:31:17;;;;;;;;;;;;;;;20.60;53.11;100010.37;5382369;32;34325;-74
2023/06/02 01:34:25;;;;;;;;;;;;;;;20.42;53.39;100004.78;5368642;32;43308;-73
2023/06/02 01:37:28;;;;;;;;;;;;;;;20.69;52.94;100005.09;5380586;32;34205;-73
2023/06/02 01:40:30;;;;;;;;;;;;;;;20.69;52.71;99989.06;5369646;32;33541;-72
2023/06/02 01:43:34;;;;;;;;;;;;;;;20.77;52.87;100007.09;5388874;32;33384;-73
2023/06/02 01:46:36;;;;;;;;;;;;;;;21.21;51.48;100010.34;5382381;32;33908;-73
2023/06/02 01:49:38;;;;;;;;;;;;;;;20.80;52.81;100012.16;5389115;32;34252;-73
2023/06/02 01:52:40;;;;;;;;;;;;;;;20.37;54.16;100010.53;5387789;32;32619;-74
2023/06/02 01:55:42;;;;;;;;;;;;;;;20.56;53.78;100001.81;5381431;32;33647;-72
2023/06/02 01:58:46;;;;;;;;;;;;;;;20.39;54.09;100008.56;5391209;32;33383;-73
2023/06/02 02:01:48;;;;;;;;;;;;;;;21.59;51.09;100010.44;5373263;32;34141;-73
2023/06/02 02:04:50;;;;;;;;;;;;;;;20.37;54.81;100012.34;5373681;32;33804;-72
2023/06/02 02:07:52;;;;;;;;;;;;;;;20.35;55.14;100009.81;5381948;32;34305;-73
2023/06/02 02:10:54;;;;;;;;;;;;;;;21.37;52.22;100008.81;5388573;32;33631;-73
2023/06/02 02:13:56;;;;;;;;;;;;;;;20.21;55.46;100002.97;5371154;32;34160;-74
2023/06/02 02:17:00;;;;;;;;;;;;;;;20.21;55.96;100004.78;5379259;32;32999;-74
2023/06/02 02:20:05;;;;;;;;;;;;;;;21.20;52.19;100003.31;5389779;32;33716;-72
2023/06/02 02:23:07;;;;;;;;;;;;;;;20.11;55.30;100001.22;5383974;32;33763;-72
2023/06/02 02:26:09;;;;;;;;;;;;;;;20.37;54.79;100002.50;5391338;32;33249;-73
2023/06/02 02:29:11;;;;;;;;;;;;;;;20.51;54.44;100004.03;5367108;32;45331;-73
2023/06/02 02:32:13;;;;;;;;;;;;;;;19.93;56.20;100001.78;5383254;32;33933;-72
2023/06/02 02:35:15;;;;;;;;;;;;;;;20.05;55.68;100013.25;5373255;32;33122;-73
2023/06/02 02:38:17;;;;;;;;;;;;;;;19.99;55.95;100009.28;5381553;32;33627;-72
2023/06/02 02:41:19;;;;;;;;;;;;;;;20.43;54.27;100010.00;5392501;32;33714;-72
2023/06/02 02:44:21;;;;;;;;;;;;;;;20.15;54.28;99999.97;5370228;32;34877;-74
2023/06/02 02:47:23;;;;;;;;;;;;;;;20.45;53.26;99999.22;5376565;32;34821;-74
2023/06/02 02:50:25;;;;;;;;;;;;;;;20.88;52.05;99992.81;5382835;32;34428;-73
2023/06/02 02:53:31;;;;;;;;;;;;;;;20.21;54.19;100005.63;5384502;32;33177;-74
2023/06/02 02:56:33;;;;;;;;;;;;;;;20.02;54.73;100003.66;5388917;32;33932;-73
2023/06/02 02:59:35;;;;;;;;;;;;;;;19.66;55.70;100004.94;5389184;32;34386;-73
2023/06/02 03:02:37;;;;;;;;;;;;;;;19.71;55.89;99997.44;5388692;32;33551;-72
2023/06/02 03:05:41;;;;;;;;;;;;;;;19.66;55.62;99990.78;5379765;32;33434;-73
2023/06/02 03:08:43;;;;;;;;;;;;;;;19.80;55.03;99994.97;5376776;32;44118;-73
2023/06/02 03:11:45;;;;;;;;;;;;;;;19.87;54.23;100002.31;5383970;32;33553;-74
2023/06/02 03:14:47;;;;;;;;;;;;;;;19.83;54.46;100000.88;5376946;32;34718;-73
2023/06/02 03:17:50;;;;;;;;;;;;;;;19.26;56.56;100010.03;5376783;32;33904;-74
2023/06/02 03:20:54;;;;;;;;;;;;;;;20.37;52.95;99999.84;5383414;32;33864;-72
2023/06/02 03:23:56;;;;;;;;;;;;;;;20.63;52.44;99989.59;5396860;32;34588;-72
2023/06/02 03:26:58;;;;;;;;;;;;;;;20.87;51.66;99999.97;5387011;32;33817;-72
2023/06/02 03:30:00;;;;;;;;;;;;;;;20.64;52.42;99982.44;5387101;32;33605;-73
2023/06/02 03:33:02;;;;;;;;;;;;;;;19.98;54.21;99994.25;5370333;32;33675;-72
2023/06/02 03:36:05;;;;;;;;;;;;;;;19.77;55.07;100003.19;5384121;32;33030;-72
2023/06/02 03:39:12;;;;;;;;;;;;;;;20.34;53.50;100000.09;5395740;32;34219;-73
2023/06/02 03:42:15;;;;;;;;;;;;;;;19.99;54.44;100006.63;5382024;32;45200;-72
2023/06/02 03:45:18;;;;;;;;;;;;;;;20.33;53.52;100013.56;5390627;32;33534;-73
2023/06/02 03:48:20;;;;;;;;;;;;;;;19.84;55.33;100018.59;5384273;32;33186;-72
2023/06/02 03:51:22;;;;;;;;;;;;;;;20.13;54.35;100009.94;5380743;32;33497;-73
2023/06/02 03:54:24;;;;;;;;;;;;;;;20.18;54.24;100000.56;5385029;32;34457;-72
2023/06/02 03:57:26;;;;;;;;;;;;;;;19.96;55.05;100012.19;5371586;32;33251;-74
2023/06/02 04:00:28;;;;;;;;;;;;;;;19.54;56.38;100005.09;5377045;32;33613;-73
2023/06/02 04:03:32;;;;;;;;;;;;;;;20.25;54.72;100004.41;5372919;32;33679;-73
2023/06/02 04:06:34;;;;;;;;;;;;;;;20.31;54.79;100011.03;5396406;32;33942;-72
2023/06/02 04:09:36;;;;;;;;;;;;;;;20.35;54.18;100001.81;5386750;32;33487;-72
2023/06/02 04:12:38;;;;;;;;;;;;;;;20.05;55.48;100007.06;5389967;32;33432;-74
2023/06/02 04:15:40;;;;;;;;;;;;;;;20.66;53.78;100001.84;5385810;32;43858;-73
2023/06/02 04:18:43;;;;;;;;;;;;;;;21.24;51.17;100005.53;5384456;32;33980;-73
2023/06/02 04:21:45;;;;;;;;;;;;;;;21.65;50.60;100003.69;5378048;32;33940;-73
2023/06/02 04:24:47;;;;;;;;;;;;;;;21.62;50.89;100003.94;5381383;32;33997;-73
2023/06/02 04:27:49;;;;;;;;;;;;;;;20.54;53.17;100009.06;5378881;32;34214;-73
2023/06/02 04:30:55;;;;;;;;;;;;;;;21.31;51.96;100003.19;5380960;32;34139;-73
2023/06/02 04:33:57;;;;;;;;;;;;;;;20.85;52.54;100009.09;5389720;32;32871;-73
2023/06/02 04:36:59;;;;;;;;;;;;;;;21.84;49.99;100005.50;5385223;32;33646;-73
2023/06/02 04:40:01;;;;;;;;;;;;;;;22.95;47.47;99999.50;5378015;32;33113;-74
2023/06/02 04:43:03;;;;;;;;;;;;;;;22.32;48.14;100001.94;5393668;32;33849;-73
2023/06/02 04:46:06;;;;;;;;;;;;;;;22.30;49.11;99998.56;5382733;32;34781;-73
2023/06/02 04:49:09;;;;;;;;;;;;;;;22.01;50.11;100009.28;5388990;32;33620;-72
2023/06/02 04:52:11;;;;;;;;;;;;;;;22.46;48.04;100004.16;5384617;32;44337;-73
2023/06/02 04:55:14;;;;;;;;;;;;;;;23.58;45.67;100002.22;5390855;32;32536;-75
2023/06/02 04:58:16;;;;;;;;;;;;;;;23.35;45.75;99991.06;5385867;32;34413;-72
2023/06/02 05:01:18;;;;;;;;;;;;;;;24.91;42.03;99991.25;5377288;32;33003;-72
2023/06/02 05:04:22;;;;;;;;;;;;;;;24.68;42.16;99987.47;5393228;32;33636;-74
2023/06/02 05:07:24;;;;;;;;;;;;;;;23.74;44.68;99998.84;5384440;32;33014;-72
2023/06/02 05:10:26;;;;;;;;;;;;;;;24.32;43.27;99995.63;5391166;32;33452;-74
2023/06/02 05:13:29;;;;;;;;;;;;;;;25.69;40.16;99985.59;5368372;32;34102;-74
2023/06/02 05:16:31;;;;;;;;;;;;;;;25.05;41.34;99989.84;5388408;32;33825;-73
2023/06/02 05:19:33;;;;;;;;;;;;;;;24.95;41.79;99987.25;5377227;32;33678;-73
2023/06/02 05:22:35;;;;;;;;;;;;;;;25.56;40.80;99988.78;5385978;32;33345;-73
2023/06/02 05:25:38;;;;;;;;;;;;;;;26.68;38.30;99985.37;5396794;32;33904;-73
2023/06/02 05:28:40;;;;;;;;;;;;;;;26.70;37.95;99985.22;5383310;32;44664;-74
2023/06/02 05:31:43;;;;;;;;;;;;;;;25.94;39.40;99986.47;5390571;32;31512;-74
2023/06/02 05:34:45;;;;;;;;;;;;;;;25.89;39.83;99987.00;5387968;32;34034;-73
2023/06/02 05:37:47;;;;;;;;;;;;;;;27.94;35.78;99987.91;5386525;32;33333;-74
2023/06/02 05:40:49;;;;;;;;;;;;;;;27.09;37.56;99990.62;5386584;32;33845;-73
2023/06/02 05:43:51;;;;;;;;;;;;;;;27.93;35.99;99990.78;5371819;32;35090;-73
2023/06/02 05:46:53;;;;;;;;;;;;;;;28.16;35.16;99985.34;5384670;32;33410;-73
2023/06/02 05:49:56;;;;;;;;;;;;;;;27.95;36.06;99984.19;5367094;32;32637;-73
2023/06/02 05:52:58;;;;;;;;;;;;;;;28.06;35.80;99982.91;5395770;32;33911;-73
2023/06/02 05:56:00;;;;;;;;;;;;;;;28.46;35.13;99972.75;5386033;32;33890;-73
2023/06/02 05:59:02;;;;;;;;;;;;;;;29.19;33.67;99976.44;5387086;32;34114;-73
2023/06/02 06:02:04;;;;;;;;;;;;;;;29.17;33.88;99981.19;5388918;32;33010;-73
2023/06/02 06:05:06;;;;;;;;;;;;;;;27.89;35.75;99987.63;5389253;32;35564;-74
2023/06/02 06:08:09;;;;;;;;;;;;;;;29.30;33.56;99976.75;5396355;32;33187;-73
2023/06/02 06:11:13;;;;;;;;;;;;;;;29.37;33.65;99985.00;5374793;32;45277;-73
2023/06/02 06:14:18;;;;;;;;;;;;;;;28.56;35.28;99974.16;5396521;32;33854;-72
2023/06/02 06:17:20;;;;;;;;;;;;;;;28.96;34.15;99974.72;5372752;32;33659;-73
2023/06/02 06:20:22;;;;;;;;;;;;;;;28.90;34.74;99971.88;5392854;32;35542;-72
2023/06/02 06:23:25;;;;;;;;;;;;;;;29.70;34.13;99970.97;5383375;32;34191;-73
2023/06/02 06:26:27;;;;;;;;;;;;;;;30.06;33.21;99977.13;5390498;32;34511;-74
2023/06/02 06:29:29;;;;;;;;;;;;;;;31.49;31.45;99973.78;5380948;32;34027;-72
2023/06/02 06:32:31;;;;;;;;;;;;;;;32.39;29.53;99976.97;5393027;32;33668;-74
2023/06/02 06:35:33;;;;;;;;;;;;;;;31.02;31.64;99972.75;5385180;32;33933;-74
2023/06/02 06:38:35;;;;;;;;;;;;;;;30.19;32.79;99985.37;5393917;32;34037;-74
2023/06/02 06:41:40;;;;;;;;;;;;;;;30.44;32.34;99979.50;5389913;32;33818;-73
2023/06/02 06:44:42;;;;;;;;;;;;;;;30.80;31.96;99981.22;5384083;32;45117;-73
2023/06/02 06:47:45;;;;;;;;;;;;;;;31.02;31.37;99975.47;5389663;32;33272;-72
2023/06/02 06:50:48;;;;;;;;;;;;;;;31.26;31.57;99982.28;5397238;32;33678;-74
2023/06/02 06:53:50;;;;;;;;;;;;;;;30.85;31.99;99987.72;5397391;32;34229;-75
2023/06/02 06:56:52;;;;;;;;;;;;;;;33.51;28.33;99977.63;5398028;32;34247;-73
2023/06/02 06:59:54;;;;;;;;;;;;;;;34.90;26.11;99981.84;5393248;32;34022;-74
2023/06/02 07:02:57;;;;;;;;;;;;;;;33.65;27.29;99987.38;5388136;32;34039;-73
2023/06/02 07:06:00;;;;;;;;;;;;;;;32.79;28.38;99983.16;5383595;32;33631;-73
2023/06/02 07:09:03;;;;;;;;;;;;;;;32.28;29.44;99983.88;5389962;32;35476;-74
2023/06/02 07:12:06;;;;;;;;;;;;;;;32.50;29.00;99978.19;5399687;32;33910;-73
2023/06/02 07:15:08;;;;;;;;;;;;;;;33.79;27.02;99969.87;5376976;32;34189;-74
2023/06/02 07:18:11;;;;;;;;;;;;;;;34.09;26.12;99974.72;5376861;32;44755;-73
2023/06/02 07:21:13;;;;;;;;;;;;;;;34.10;26.13;99970.94;5392107;32;34623;-74
2023/06/02 07:24:15;;;;;;;;;;;;;;;32.54;28.03;99979.47;5384903;32;33362;-74
2023/06/02 07:27:17;;;;;;;;;;;;;;;31.80;29.54;99975.91;5393168;32;34419;-73
2023/06/02 07:30:20;;;;;;;;;;;;;;;30.64;31.88;99983.19;5384599;32;32878;-74
2023/06/02 07:33:22;;;;;;;;;;;;;;;31.07;31.42;99963.19;5396515;32;33755;-72
2023/06/02 07:36:24;;;;;;;;;;;;;;;31.79;29.92;99974.25;5377132;32;33447;-73
2023/06/02 07:39:27;;;;;;;;;;;;;;;32.47;28.72;99960.44;5394673;32;33762;-75
2023/06/02 07:42:29;;;;;;;;;;;;;;;32.96;28.39;99959.03;5368446;32;34215;-74
2023/06/02 07:45:31;;;;;;;;;;;;;;;35.43;25.16;99954.75;5385651;32;32270;-74
2023/06/02 07:48:35;;;;;;;;;;;;;;;35.42;24.97;99958.50;5392607;32;33891;-73
2023/06/02 07:51:38;;;;;;;;;;;;;;;36.11;23.57;99949.88;5380818;32;34652;-73
2023/06/02 07:54:40;;;;;;;;;;;;;;;35.35;24.05;99957.75;5386555;32;44664;-74
2023/06/02 07:57:42;;;;;;;;;;;;;;;32.54;28.63;99954.97;5390430;32;33826;-74
2023/06/02 08:00:44;;;;;;;;;;;;;;;30.69;32.10;99969.06;5397220;32;33545;-75
2023/06/02 08:03:46;;;;;;;;;;;;;;;31.25;30.92;99972.47;5393920;32;33465;-73
2023/06/02 08:06:49;;;;;;;;;;;;;;;30.49;31.95;99971.63;5386462;32;31735;-73
2023/06/02 08:09:52;;;;;;;;;;;;;;;29.56;34.23;99967.28;5396586;32;33671;-74
2023/06/02 08:12:57;;;;;;;;;;;;;;;28.51;35.11;99964.91;5393212;32;33465;-74
2023/06/02 08:15:59;;;;;;;;;;;;;;;28.92;34.30;99964.44;5384333;32;33395;-75
2023/06/02 08:19:10;;;;;;;;;;;;;;;29.12;33.91;99965.56;5392769;32;34077;-73
2023/06/02 08:22:13;;;;;;;;;;;;;;;28.54;34.88;99976.22;5395246;32;48641;-72
2023/06/02 08:25:15;;;;;;;;;;;;;;;29.35;33.86;99968.09;5400080;32;34272;-73
2023/06/02 08:28:24;;;;;;;;;;;;;;;28.66;34.17;99975.72;5389428;32;34858;-73
2023/06/02 08:31:28;;;;;;;;;;;;;;;28.09;34.47;99979.84;5393747;32;33821;-73
2023/06/02 08:34:31;;;;;;;;;;;;;;;29.06;33.07;99961.72;5392339;32;34829;-73
2023/06/02 08:37:34;;;;;;;;;;;;;;;29.49;32.86;99964.47;5399627;32;33912;-74
2023/06/02 08:40:38;;;;;;;;;;;;;;;29.94;32.06;99962.44;5378828;32;33841;-73
2023/06/02 08:43:41;;;;;;;;;;;;;;;29.14;33.10;99964.31;5379826;32;34977;-72
2023/06/02 08:46:47;;;;;;;;;;;;;;;29.03;33.48;99962.09;5379336;32;33657;-74
2023/06/02 08:49:49;;;;;;;;;;;;;;;29.07;33.43;99966.09;5389130;32;32553;-74
2023/06/02 08:52:52;;;;;;;;;;;;;;;30.03;31.95;99955.84;5396297;32;33070;-73
2023/06/02 08:55:54;;;;;;;;;;;;;;;28.97;33.34;99952.03;5388808;32;33845;-74
2023/06/02 08:58:56;;;;;;;;;;;;;;;28.72;35.00;99950.63;5398810;32;33819;-73
2023/06/02 09:01:59;;;;;;;;;;;;;;;28.70;34.13;99945.44;5391783;32;34056;-72
2023/06/02 09:05:02;;;;;;;;;;;;;;;28.80;33.35;99942.44;5396401;32;34662;-73
2023/06/02 09:08:09;;;;;;;;;;;;;;;29.02;32.48;99941.50;5393350;32;34388;-72
2023/06/02 09:11:16;;;;;;;;;;;;;;;28.94;32.53;99948.88;5379366;32;46485;-73
2023/06/02 09:14:21;;;;;;;;;;;;;;;27.44;34.74;99946.09;5399889;32;33780;-73
2023/06/02 09:17:25;;;;;;;;;;;;;;;28.93;32.25;99921.00;5391854;32;34154;-75
2023/06/02 09:20:30;;;;;;;;;;;;;;;29.09;32.80;99934.28;5391728;32;33811;-72
2023/06/02 09:23:44;;;;;;;;;;;;;;;28.91;32.60;99933.81;5398747;32;33795;-73
2023/06/02 09:27:00;;;;;;;;;;;;;;;28.87;31.60;99932.53;5377249;32;33605;-73
2023/06/02 09:30:06;;;;;;;;;;;;;;;29.14;31.51;99929.16;5378687;32;34383;-74
2023/06/02 09:33:11;;;;;;;;;;;;;;;29.82;30.57;99921.50;5380779;32;33538;-74
2023/06/02 09:36:23;;;;;;;;;;;;;;;28.60;32.16;99920.56;5392690;32;45191;-76
2023/06/02 09:39:38;;;;;;;;;;;;;;;27.71;33.92;99939.34;5392539;32;34412;-72
2023/06/02 09:42:43;;;;;;;;;;;;;;;27.83;33.93;99934.34;5381493;32;45210;-73
2023/06/02 09:45:47;;;;;;;;;;;;;;;29.82;30.87;99917.94;5395900;32;33886;-75
2023/06/02 09:48:56;;;;;;;;;;;;;;;31.44;28.18;99916.53;5396256;32;34133;-74
2023/06/02 09:52:17;;;;;;;;;;;;;;;32.78;25.96;99907.16;5387318;32;33436;-73
2023/06/02 09:55:19;;;;;;;;;;;;;;;33.99;23.66;99906.22;5388732;32;45015;-74
2023/06/02 09:58:22;;;;;;;;;;;;;;;32.73;25.28;99907.84;5391927;32;33079;-75
2023/06/02 10:01:24;;;;;;;;;;;;;;;31.97;26.85;99935.59;5384153;32;34368;-74
2023/06/02 10:04:27;;;;;;;;;;;;;;;30.86;27.37;99939.72;5393413;32;33539;-77
2023/06/02 10:07:47;;;;;;;;;;;;;;;29.16;30.43;99963.28;5398197;32;34242;-75
2023/06/02 10:10:53;;;;;;;;;;;;;;;26.48;35.31;99969.78;5391303;32;45237;-73
2023/06/02 10:13:55;;;;;;;;;;;;;;;25.20;36.91;99980.16;5388332;32;33590;-74
2023/06/02 10:17:07;;;;;;;;;;;;;;;24.35;41.71;99981.09;5395280;32;33682;-74
2023/06/02 10:20:28;;;;;;;;;;;;;;;24.61;41.87;99971.16;5374437;32;33499;-74
2023/06/02 10:23:38;;;;;;;;;;;;;;;25.32;42.33;99965.41;5384191;32;33653;-74
2023/06/02 10:26:59;;;;;;;;;;;;;;;26.11;38.91;99965.78;5391745;32;45351;-73
2023/06/02 10:30:01;;;;;;;;;;;;;;;25.89;37.17;99964.59;5386722;32;33503;-72
2023/06/02 10:33:03;;;;;;;;;;;;;;;26.25;33.18;99969.63;5394379;32;34882;-72
2023/06/02 10:36:08;;;;;;;;;;;;;;;25.66;38.74;99976.03;5378359;32;33507;-72
2023/06/02 10:39:29;;;;;;;;;;;;;;;24.85;42.94;99978.47;5395706;32;35712;-74
2023/06/02 10:42:31;;;;;;;;;;;;;;;24.83;43.98;99975.94;5389945;32;36347;-74
2023/06/02 10:45:36;;;;;;;;;;;;;;;25.49;39.51;99974.31;5385119;32;34221;-72
2023/06/02 10:48:39;;;;;;;;;;;;;;;26.18;37.59;99962.22;5394728;32;33110;-75
2023/06/02 10:52:00;;;;;;;;;;;;;;;25.64;39.80;99955.69;5384974;32;44516;-74
2023/06/02 10:55:08;;;;;;;;;;;;;;;27.19;35.27;99941.88;5392087;32;34733;-72
2023/06/02 10:58:12;;;;;;;;;;;;;;;28.80;32.58;99931.63;5374863;32;44622;-75
2023/06/02 11:01:34;;;;;;;;;;;;;;;29.67;31.34;99929.69;5379724;32;33057;-72
2023/06/02 11:04:38;;;;;;;;;;;;;;;31.55;28.60;99932.19;5401065;32;34508;-75
2023/06/02 11:07:41;;;;;;;;;;;;;;;32.05;27.54;99931.81;5389026;32;44489;-73
2023/06/02 11:10:46;;;;;;;;;;;;;;;33.73;26.92;99913.53;5393108;32;34074;-75
2023/06/02 11:13:55;;;;;;;;;;;;;;;33.29;27.43;99909.84;5388890;32;35961;-73
2023/06/02 11:17:16;;;;;;;;;;;;;;;33.82;26.41;99904.03;5374383;32;33501;-74
2023/06/02 11:20:20;;;;;;;;;;;;;;;31.90;28.57;99912.19;5396636;32;45447;-72
2023/06/02 11:23:22;;;;;;;;;;;;;;;33.51;26.51;99901.37;5377732;32;35165;-72
2023/06/02 11:26:25;;;;;;;;;;;;;;;33.19;26.14;99903.22;5393848;32;33546;-73
2023/06/02 11:29:27;;;;;;;;;;;;;;;31.24;28.42;99924.63;5390654;32;34310;-73
2023/06/02 11:32:29;;;;;;;;;;;;;;;30.50;30.52;99932.63;5403904;32;34320;-72
2023/06/02 11:35:31;;;;;;;;;;;;;;;28.93;33.99;99931.81;5392099;32;34070;-73
2023/06/02 11:38:34;;;;;;;;;;;;;;;28.42;35.17;99930.91;5387015;32;33572;-73
2023/06/02 11:41:36;;;;;;;;;;;;;;;28.74;35.51;99937.78;5395235;32;34232;-74
2023/06/02 11:44:46;;;;;;;;;;;;;;;28.65;35.40;99944.31;5389674;32;33472;-74
2023/06/02 11:48:05;;;;;;;;;;;;;;;27.14;39.25;99977.47;5395962;32;44747;-72
2023/06/02 11:51:08;;;;;;;;;;;;;;;26.46;40.17;99978.87;5372772;32;33266;-74
2023/06/02 11:54:10;;;;;;;;;;;;;;;26.24;40.35;99979.56;5378481;32;44622;-73
2023/06/02 11:57:12;;;;;;;;;;;;;;;26.22;39.02;99978.06;5393709;32;34348;-74
2023/06/02 12:00:18;;;;;;;;;;;;;;;26.45;40.29;99977.19;5388578;32;33779;-72
2023/06/02 12:03:20;;;;;;;;;;;;;;;26.17;41.98;99967.81;5394853;32;33803;-73
2023/06/02 12:06:22;;;;;;;;;;;;;;;25.89;42.54;99951.16;5389699;32;34731;-74
2023/06/02 12:09:29;;;;;;;;;;;;;;;26.14;42.08;99946.56;5395701;32;33618;-74
2023/06/02 12:12:31;;;;;;;;;;;;;;;25.83;42.51;99950.00;5387860;32;33445;-73
2023/06/02 12:15:34;;;;;;;;;;;;;;;25.18;43.50;99949.88;5391860;32;34178;-72
2023/06/02 12:18:36;;;;;;;;;;;;;;;24.88;44.60;99943.22;5394917;32;34692;-73
2023/06/02 12:21:41;;;;;;;;;;;;;;;24.68;44.43;99931.91;5387331;32;34396;-73
2023/06/02 12:24:44;;;;;;;;;;;;;;;25.78;41.94;99928.12;5373305;32;45666;-73
2023/06/02 12:27:46;;;;;;;;;;;;;;;25.28;43.37;99926.38;5388349;32;32991;-72
2023/06/02 12:30:49;;;;;;;;;;;;;;;25.70;42.02;99919.16;5390835;32;34041;-73
2023/06/02 12:33:51;;;;;;;;;;;;;;;24.68;42.12;99918.47;5387754;32;34467;-73
2023/06/02 12:36:53;;;;;;;;;;;;;;;25.33;40.09;99915.13;5389480;32;32606;-75
2023/06/02 12:39:55;;;;;;;;;;;;;;;24.91;39.77;99904.41;5393222;32;33198;-75
2023/06/02 12:42:58;;;;;;;;;;;;;;;25.05;39.41;99901.09;5375224;32;33684;-74
2023/06/02 12:46:01;;;;;;;;;;;;;;;25.77;38.47;99894.16;5380902;32;33273;-75
2023/06/02 12:49:03;;;;;;;;;;;;;;;26.66;35.88;99885.00;5387308;32;33547;-73
2023/06/02 12:52:05;;;;;;;;;;;;;;;26.42;36.51;99885.09;5392047;32;33632;-73
2023/06/02 12:55:07;;;;;;;;;;;;;;;26.82;35.45;99886.75;5395706;32;34226;-76
2023/06/02 12:58:10;;;;;;;;;;;;;;;26.89;35.12;99879.63;5374561;32;33872;-76
2023/06/02 13:01:12;;;;;;;;;;;;;;;28.31;32.70;99851.13;5397944;32;44693;-76
2023/06/02 13:04:14;;;;;;;;;;;;;;;28.66;32.39;99863.03;5390902;32;33556;-75
2023/06/02 13:07:16;;;;;;;;;;;;;;;29.43;30.17;99862.38;5399795;32;32844;-74
2023/06/02 13:10:18;;;;;;;;;;;;;;;28.89;31.29;99868.28;5386222;32;33530;-75
2023/06/02 13:13:20;;;;;;;;;;;;;;;29.39;30.73;99861.94;5392332;32;34328;-76
2023/06/02 13:16:23;;;;;;;;;;;;;;;28.74;30.06;99852.09;5379142;32;33563;-76
2023/06/02 13:19:25;;;;;;;;;;;;;;;29.73;29.60;99854.13;5387983;32;33898;-73
2023/06/02 13:22:28;;;;;;;;;;;;;;;29.98;28.89;99854.50;5397941;32;33354;-73
2023/06/02 13:25:33;;;;;;;;;;;;;;;30.95;27.27;99843.53;5392288;32;33875;-74
2023/06/02 13:28:35;;;;;;;;;;;;;;;30.08;28.80;99839.59;5395360;32;35618;-72
2023/06/02 13:31:38;;;;;;;;;;;;;;;29.91;28.97;99832.78;5373566;32;34069;-72
2023/06/02 13:34:45;;;;;;;;;;;;;;;30.71;28.33;99843.03;5391928;32;44555;-74
2023/06/02 13:37:47;;;;;;;;;;;;;;;29.38;27.44;99835.09;5377997;32;33739;-75
2023/06/02 13:40:50;;;;;;;;;;;;;;;29.92;27.26;99824.47;5383793;32;33693;-75
2023/06/02 13:43:53;;;;;;;;;;;;;;;30.79;25.77;99835.78;5394284;32;34427;-75
2023/06/02 13:46:56;;;;;;;;;;;;;;;29.80;27.76;99831.47;5384265;32;33414;-75
2023/06/02 13:49:58;;;;;;;;;;;;;;;30.33;27.47;99828.25;5395529;32;33653;-73
2023/06/02 13:53:00;;;;;;;;;;;;;;;29.62;28.46;99825.72;5388612;32;35325;-75
2023/06/02 13:56:02;;;;;;;;;;;;;;;30.17;26.39;99821.31;5384133;32;34049;-77
2023/06/02 13:59:05;;;;;;;;;;;;;;;29.47;27.73;99816.81;5393943;32;34651;-73
2023/06/02 14:02:07;;;;;;;;;;;;;;;29.75;27.74;99817.69;5396061;32;32767;-75
2023/06/02 14:05:11;;;;;;;;;;;;;;;29.58;27.24;99817.16;5393969;32;45696;-75
2023/06/02 14:08:13;;;;;;;;;;;;;;;30.39;26.34;99819.31;5384982;32;33153;-74
2023/06/02 14:11:16;;;;;;;;;;;;;;;30.36;26.31;99822.44;5386516;32;34139;-72
2023/06/02 14:14:19;;;;;;;;;;;;;;;30.89;24.62;99817.22;5384397;32;33274;-73
2023/06/02 14:17:22;;;;;;;;;;;;;;;30.91;22.50;99825.97;5384438;32;34256;-73
2023/06/02 14:20:24;;;;;;;;;;;;;;;30.71;22.41;99813.19;5391664;32;34668;-74
2023/06/02 14:23:26;;;;;;;;;;;;;;;29.77;21.89;99822.91;5381270;32;33958;-74
2023/06/02 14:26:28;;;;;;;;;;;;;;;30.12;22.06;99821.91;5392805;32;34473;-74
2023/06/02 14:29:30;;;;;;;;;;;;;;;29.82;22.43;99823.13;5368621;32;33167;-72
2023/06/02 14:32:32;;;;;;;;;;;;;;;30.05;22.44;99818.28;5393798;32;31922;-73
2023/06/02 14:35:34;;;;;;;;;;;;;;;30.13;22.06;99818.16;5387962;32;33131;-75
2023/06/02 14:38:36;;;;;;;;;;;;;;;29.48;22.51;99815.78;5367775;32;34423;-73
2023/06/02 14:41:38;;;;;;;;;;;;;;;29.88;21.89;99806.97;5387242;32;33342;-75
2023/06/02 14:44:41;;;;;;;;;;;;;;;29.78;22.29;99811.03;5382887;32;44591;-73
2023/06/02 14:47:43;;;;;;;;;;;;;;;29.24;22.54;99817.91;5396500;32;33714;-73
2023/06/02 14:50:44;;;;;;;;;;;;;;;29.81;21.98;99810.63;5379442;32;33819;-73
2023/06/02 14:53:47;;;;;;;;;;;;;;;29.54;21.93;99810.44;5390113;32;33172;-73
2023/06/02 14:56:49;;;;;;;;;;;;;;;29.55;21.43;99801.28;5394939;32;34345;-75
2023/06/02 14:59:51;;;;;;;;;;;;;;;29.38;20.51;99810.72;5380647;32;34351;-73
2023/06/02 15:02:53;;;;;;;;;;;;;;;29.49;20.66;99812.88;5396842;32;34650;-74
2023/06/02 15:05:55;;;;;;;;;;;;;;;29.75;21.05;99816.84;5378246;32;34301;-72
2023/06/02 15:08:59;;;;;;;;;;;;;;;29.08;22.06;99821.69;5392157;32;34531;-72
2023/06/02 15:12:01;;;;;;;;;;;;;;;29.08;21.86;99813.56;5368387;32;33641;-76
2023/06/02 15:15:03;;;;;;;;;;;;;;;29.13;22.34;99808.44;5393548;32;33227;-73
2023/06/02 15:18:05;;;;;;;;;;;;;;;29.24;22.63;99808.91;5384174;32;34421;-72
2023/06/02 15:21:07;;;;;;;;;;;;;;;29.41;22.48;99797.63;5385408;32;33839;-75
2023/06/02 15:24:09;;;;;;;;;;;;;;;29.72;22.14;99806.41;5391148;32;33005;-75
2023/06/02 15:27:11;;;;;;;;;;;;;;;29.95;22.18;99804.28;5381509;32;44954;-75
2023/06/02 15:30:13;;;;;;;;;;;;;;;29.71;22.11;99810.16;5392952;32;33557;-74
2023/06/02 15:33:15;;;;;;;;;;;;;;;29.50;22.68;99811.00;5382572;32;33654;-75
2023/06/02 15:36:19;;;;;;;;;;;;;;;29.67;23.10;99797.00;5389729;32;33792;-73
2023/06/02 15:39:21;;;;;;;;;;;;;;;29.59;23.53;99799.03;5380956;32;33269;-73
2023/06/02 15:42:23;;;;;;;;;;;;;;;29.53;23.51;99797.94;5381759;32;33582;-73
2023/06/02 15:45:25;;;;;;;;;;;;;;;29.22;24.19;99792.88;5392605;32;34230;-72
2023/06/02 15:48:27;;;;;;;;;;;;;;;29.29;23.92;99793.78;5368571;32;34348;-75
2023/06/02 15:51:29;;;;;;;;;;;;;;;29.57;23.51;99777.59;5390758;32;34544;-74